createdAt,value
2019-03-20T00:00:52.561Z,67.74
2019-03-20T00:03:22.029Z,68.19
2019-03-20T00:05:51.506Z,67.39
2019-03-20T00:08:21.029Z,67.44
2019-03-20T00:10:50.623Z,66.72
2019-03-20T00:13:20.084Z,67.37
2019-03-20T00:15:49.608Z,67.39
2019-03-20T00:18:19.191Z,67.22
2019-03-20T00:20:48.652Z,67.50
2019-03-20T00:23:18.153Z,67.79
2019-03-20T00:25:47.616Z,67.83
2019-03-20T00:28:17.311Z,68.16
2019-03-20T00:30:46.981Z,67.52
2019-03-20T00:33:16.449Z,67.44
2019-03-20T00:35:45.932Z,67.37
2019-03-20T00:38:15.381Z,68.34
2019-03-20T00:40:44.886Z,67.91
2019-03-20T00:43:14.359Z,67.65
2019-03-20T00:45:44.040Z,67.33
2019-03-20T00:48:13.498Z,67.47
2019-03-20T00:50:43.373Z,67.92
2019-03-20T00:53:12.838Z,68.55
2019-03-20T00:55:42.297Z,69.02
2019-03-20T00:58:11.803Z,68.99
2019-03-20T01:00:41.351Z,69.16
2019-03-20T01:03:10.817Z,69.31
2019-03-20T01:05:40.375Z,68.20
2019-03-20T01:08:09.878Z,68.15
2019-03-20T01:10:39.323Z,68.31
2019-03-20T01:13:08.780Z,68.24
2019-03-20T01:15:38.286Z,68.24
2019-03-20T01:18:07.742Z,68.33
2019-03-20T01:20:37.277Z,68.05
2019-03-20T01:23:06.929Z,67.70
2019-03-20T01:25:36.371Z,67.89
2019-03-20T01:28:05.958Z,67.98
2019-03-20T01:30:38.651Z,68.87
2019-03-20T01:33:09.810Z,68.35
2019-03-20T01:35:39.264Z,68.90
2019-03-20T01:38:09.166Z,68.80
2019-03-20T01:40:40.603Z,69.13
2019-03-20T01:43:10.792Z,68.87
2019-03-20T01:45:40.265Z,68.62
2019-03-20T01:48:09.712Z,68.81
2019-03-20T01:50:39.185Z,68.56
2019-03-20T01:53:08.638Z,68.84
2019-03-20T01:55:38.080Z,69.21
2019-03-20T01:58:07.600Z,68.78
2019-03-20T02:00:37.101Z,69.23
2019-03-20T02:03:06.580Z,69.20
2019-03-20T02:05:36.693Z,69.31
2019-03-20T02:08:06.966Z,69.02
2019-03-20T02:10:36.658Z,68.89
2019-03-20T02:13:06.457Z,68.90
2019-03-20T02:15:39.253Z,69.06
2019-03-20T02:18:07.114Z,69.74
2019-03-20T02:20:37.073Z,70.02
2019-03-20T02:23:06.767Z,70.18
2019-03-20T02:25:36.419Z,70.64
2019-03-20T02:28:05.962Z,70.82
2019-03-20T02:30:35.414Z,71.16
2019-03-20T02:33:04.911Z,71.84
2019-03-20T02:35:34.355Z,71.58
2019-03-20T02:38:03.820Z,71.79
2019-03-20T02:40:33.260Z,71.48
2019-03-20T02:43:02.751Z,71.69
2019-03-20T02:45:34.674Z,71.37
2019-03-20T02:48:04.158Z,70.62
2019-03-20T02:50:33.611Z,71.05
2019-03-20T02:53:03.261Z,70.36
2019-03-20T02:55:32.750Z,70.11
2019-03-20T02:58:02.191Z,70.14
2019-03-20T03:00:31.668Z,70.33
2019-03-20T03:03:02.228Z,70.73
2019-03-20T03:05:31.679Z,71.11
2019-03-20T03:08:01.164Z,70.66
2019-03-20T03:10:30.818Z,70.19
2019-03-20T03:13:00.567Z,68.94
2019-03-20T03:15:30.005Z,68.50
2019-03-20T03:17:59.778Z,68.27
2019-03-20T03:20:29.241Z,68.58
2019-03-20T03:22:58.848Z,69.06
2019-03-20T03:25:28.708Z,68.92
2019-03-20T03:27:58.188Z,69.27
2019-03-20T03:30:27.658Z,69.05
2019-03-20T03:32:57.110Z,69.36
2019-03-20T03:35:26.619Z,69.58
2019-03-20T03:37:56.084Z,69.74
2019-03-20T03:40:25.589Z,69.95
2019-03-20T03:42:55.240Z,70.05
2019-03-20T03:45:25.394Z,70.32
2019-03-20T03:47:54.859Z,70.13
2019-03-20T03:50:24.364Z,70.71
2019-03-20T03:52:53.881Z,70.55
2019-03-20T03:55:23.371Z,71.06
2019-03-20T03:57:52.865Z,71.87
2019-03-20T04:00:22.338Z,71.47
2019-03-20T04:02:51.968Z,71.04
2019-03-20T04:05:21.425Z,70.30
2019-03-20T04:07:50.920Z,70.30
2019-03-20T04:10:20.455Z,70.07
2019-03-20T04:12:49.918Z,69.66
2019-03-20T04:15:19.407Z,69.21
2019-03-20T04:17:48.863Z,69.14
2019-03-20T04:20:18.336Z,70.01
2019-03-20T04:22:47.865Z,68.23
2019-03-20T04:25:17.888Z,68.39
2019-03-20T04:27:47.413Z,68.75
2019-03-20T04:30:17.279Z,68.92
2019-03-20T04:32:46.810Z,68.93
2019-03-20T04:35:16.889Z,68.69
2019-03-20T04:37:46.333Z,69.06
2019-03-20T04:40:15.940Z,68.86
2019-03-20T04:42:45.516Z,69.48
2019-03-20T04:45:15.015Z,69.62
2019-03-20T04:47:44.483Z,69.52
2019-03-20T04:50:13.967Z,69.22
2019-03-20T04:52:43.459Z,69.01
2019-03-20T04:55:13.784Z,69.14
2019-03-20T04:57:45.609Z,68.93
2019-03-20T05:00:15.565Z,69.48
2019-03-20T05:02:45.009Z,69.21
2019-03-20T05:05:14.754Z,69.15
2019-03-20T05:07:44.232Z,68.82
2019-03-20T05:10:13.929Z,69.28
2019-03-20T05:12:43.441Z,68.90
2019-03-20T05:15:12.948Z,68.57
2019-03-20T05:17:42.609Z,67.83
2019-03-20T05:20:13.023Z,68.02
2019-03-20T05:22:42.493Z,68.14
2019-03-20T05:25:11.955Z,67.78
2019-03-20T05:27:41.477Z,67.65
2019-03-20T05:30:12.056Z,68.06
2019-03-20T05:32:41.688Z,68.24
2019-03-20T05:35:11.345Z,68.65
2019-03-20T05:37:40.925Z,68.03
2019-03-20T05:40:11.748Z,68.14
2019-03-20T05:42:41.200Z,67.87
2019-03-20T05:45:12.327Z,67.82
2019-03-20T05:47:41.933Z,68.00
2019-03-20T05:50:12.329Z,67.54
2019-03-20T05:52:42.259Z,67.52
2019-03-20T05:55:11.789Z,67.74
2019-03-20T05:57:41.301Z,68.00
2019-03-20T06:00:12.676Z,67.80
2019-03-20T06:02:42.184Z,67.63
2019-03-20T06:05:11.894Z,68.44
2019-03-20T06:07:41.405Z,68.23
2019-03-20T06:10:13.510Z,67.96
2019-03-20T06:12:43.467Z,67.41
2019-03-20T06:15:13.237Z,67.47
2019-03-20T06:17:42.738Z,67.44
2019-03-20T06:20:12.233Z,67.54
2019-03-20T06:22:41.718Z,67.81
2019-03-20T06:25:11.803Z,67.64
2019-03-20T06:27:41.412Z,67.69
2019-03-20T06:30:13.327Z,68.02
2019-03-20T06:32:42.791Z,68.35
2019-03-20T06:35:12.289Z,68.01
2019-03-20T06:37:41.834Z,67.47
2019-03-20T06:40:11.700Z,67.42
2019-03-20T06:42:41.276Z,66.57
2019-03-20T06:45:11.608Z,66.82
2019-03-20T06:47:41.090Z,66.61
2019-03-20T06:50:13.061Z,66.75
2019-03-20T06:52:42.592Z,66.67
2019-03-20T06:55:12.115Z,66.64
2019-03-20T06:57:41.617Z,66.45
2019-03-20T07:00:48.079Z,66.37
2019-03-20T07:03:51.557Z,65.35
2019-03-20T07:06:34.442Z,67.93
2019-03-20T07:09:13.892Z,66.57
2019-03-20T07:11:43.369Z,66.35
2019-03-20T07:14:12.865Z,66.54
2019-03-20T07:16:42.441Z,66.02
2019-03-20T07:19:11.993Z,65.34
2019-03-20T07:21:41.491Z,65.68
2019-03-20T07:24:11.057Z,65.94
2019-03-20T07:26:40.464Z,65.95
2019-03-20T07:29:09.869Z,65.63
2019-03-20T07:31:39.276Z,65.18
2019-03-20T07:34:08.740Z,64.99
2019-03-20T07:36:38.335Z,64.52
2019-03-20T07:39:09.946Z,63.95
2019-03-20T07:41:39.441Z,63.52
2019-03-20T07:44:08.836Z,63.37
2019-03-20T07:46:38.212Z,63.43
2019-03-20T07:49:07.602Z,62.99
2019-03-20T07:51:36.972Z,63.44
2019-03-20T07:54:06.372Z,63.70
2019-03-20T07:56:35.746Z,63.15
2019-03-20T07:59:05.330Z,63.45
2019-03-20T08:01:34.759Z,62.77
2019-03-20T08:04:04.146Z,62.30
2019-03-20T08:06:33.637Z,61.27
2019-03-20T08:09:04.256Z,61.49
2019-03-20T08:11:33.623Z,61.70
2019-03-20T08:14:03.028Z,62.72
2019-03-20T08:16:32.427Z,61.26
2019-03-20T08:19:01.803Z,60.91
2019-03-20T08:21:31.187Z,60.47
2019-03-20T08:24:00.600Z,60.95
2019-03-20T08:26:30.048Z,59.30
2019-03-20T08:28:59.427Z,58.69
2019-03-20T08:31:28.940Z,58.48
2019-03-20T08:33:58.355Z,58.15
2019-03-20T08:36:27.721Z,57.15
2019-03-20T08:38:57.098Z,56.41
2019-03-20T08:41:26.568Z,56.63
2019-03-20T08:43:56.017Z,55.64
2019-03-20T08:46:25.409Z,55.87
2019-03-20T08:48:54.866Z,54.67
2019-03-20T08:51:24.273Z,54.41
2019-03-20T08:53:56.179Z,54.05
2019-03-20T08:56:25.055Z,53.85
2019-03-20T08:58:54.448Z,54.29
2019-03-20T09:01:28.479Z,51.99
2019-03-20T09:03:55.059Z,51.36
2019-03-20T09:06:24.472Z,51.90
2019-03-20T09:08:53.980Z,50.71
2019-03-20T09:11:23.420Z,49.78
2019-03-20T09:13:53.006Z,48.54
2019-03-20T09:16:22.535Z,46.68
2019-03-20T09:18:51.950Z,46.30
2019-03-20T09:21:21.449Z,45.55
2019-03-20T09:23:50.833Z,45.29
2019-03-20T09:26:20.311Z,44.52
2019-03-20T09:28:49.726Z,43.95
2019-03-20T09:31:19.127Z,43.95
2019-03-20T09:33:48.682Z,43.58
2019-03-20T09:36:18.117Z,43.58
2019-03-20T09:38:47.552Z,43.38
2019-03-20T09:41:16.935Z,42.41
2019-03-20T09:43:46.732Z,42.86
2019-03-20T09:46:16.137Z,42.50
2019-03-20T09:48:46.634Z,42.50
2019-03-20T09:51:16.043Z,43.42
2019-03-20T09:53:45.418Z,43.04
2019-03-20T09:56:14.911Z,43.11
2019-03-20T09:58:44.287Z,42.13
2019-03-20T10:01:13.805Z,40.18
2019-03-20T10:03:43.186Z,40.18
2019-03-20T10:06:12.621Z,39.94
2019-03-20T10:08:53.806Z,39.94
2019-03-20T10:11:13.506Z,39.54
2019-03-20T10:13:42.951Z,39.56
2019-03-20T10:16:12.964Z,39.18
2019-03-20T10:18:44.451Z,39.18
2019-03-20T10:24:01.063Z,39.42
2019-03-20T10:26:30.429Z,38.53
2019-03-20T10:28:59.861Z,39.80
2019-03-20T10:31:29.506Z,39.74
2019-03-20T10:33:59.179Z,39.32
2019-03-20T10:36:28.572Z,39.43
2019-03-20T10:39:06.464Z,38.74
2019-03-20T10:41:30.478Z,38.93
2019-03-20T10:44:00.123Z,38.93
2019-03-20T10:46:29.612Z,38.21
2019-03-20T10:48:59.050Z,38.56
2019-03-20T10:51:28.503Z,37.84
2019-03-20T10:53:58.155Z,38.01
2019-03-20T10:56:27.585Z,39.09
2019-03-20T10:58:56.985Z,40.14
2019-03-20T11:01:26.667Z,37.43
2019-03-20T11:03:56.266Z,37.43
2019-03-20T11:06:25.904Z,38.28
2019-03-20T11:08:55.349Z,38.92
2019-03-20T11:11:27.292Z,38.19
2019-03-20T11:13:55.966Z,38.01
2019-03-20T11:16:25.413Z,38.01
2019-03-20T11:18:54.955Z,38.01
2019-03-20T11:21:24.358Z,38.24
2019-03-20T11:23:53.875Z,39.25
2019-03-20T11:26:23.465Z,38.70
2019-03-20T11:28:52.897Z,40.14
2019-03-20T11:31:22.378Z,36.54
2019-03-20T11:33:51.787Z,36.46
2019-03-20T11:36:21.278Z,36.40
2019-03-20T11:38:50.707Z,35.97
2019-03-20T11:41:20.173Z,36.07
2019-03-20T11:43:49.608Z,35.33
2019-03-20T11:46:19.051Z,35.93
2019-03-20T11:48:48.484Z,35.00
2019-03-20T11:51:17.931Z,35.48
2019-03-20T11:53:47.408Z,34.99
2019-03-20T11:56:16.834Z,36.11
2019-03-20T11:58:46.261Z,34.97
2019-03-20T12:01:15.682Z,33.80
2019-03-20T12:03:45.116Z,33.50
2019-03-20T12:06:14.644Z,33.59
2019-03-20T12:08:44.150Z,32.56
2019-03-20T12:11:15.863Z,32.67
2019-03-20T12:13:45.005Z,31.95
2019-03-20T12:16:14.550Z,31.39
2019-03-20T12:18:44.110Z,31.75
2019-03-20T12:21:13.982Z,30.20
2019-03-20T12:23:43.393Z,30.23
2019-03-20T12:26:12.961Z,28.60
2019-03-20T12:28:42.393Z,28.59
2019-03-20T12:31:12.081Z,27.71
2019-03-20T12:33:41.552Z,27.67
2019-03-20T12:36:10.993Z,28.16
2019-03-20T12:38:40.436Z,26.78
2019-03-20T12:41:09.882Z,26.52
2019-03-20T17:43:12.129Z,38.23
2019-03-20T17:45:41.601Z,38.23
2019-03-20T17:48:11.002Z,38.47
2019-03-20T17:50:40.402Z,38.26
2019-03-20T17:53:10.018Z,38.62
2019-03-20T17:55:39.449Z,38.71
2019-03-20T17:58:08.933Z,38.66
2019-03-20T18:00:43.505Z,38.99
2019-03-20T18:03:13.055Z,38.79
2019-03-20T18:05:42.686Z,39.03
2019-03-20T18:08:12.297Z,39.69
2019-03-20T18:10:41.781Z,39.16
2019-03-20T18:13:11.222Z,39.44
2019-03-20T18:15:40.889Z,39.67
2019-03-20T18:18:10.502Z,39.76
2019-03-20T18:20:40.221Z,39.99
2019-03-20T18:23:10.430Z,39.99
2019-03-20T18:25:39.868Z,39.89
2019-03-20T18:28:09.272Z,40.06
2019-03-20T18:30:39.079Z,40.06
2019-03-20T18:33:08.466Z,40.30
2019-03-20T18:35:37.903Z,40.22
2019-03-20T18:38:08.180Z,40.30
2019-03-20T18:40:37.590Z,40.49
2019-03-20T18:43:06.964Z,40.57
2019-03-20T18:45:36.336Z,40.71
2019-03-20T18:48:06.360Z,42.20
2019-03-20T18:50:35.796Z,41.99
2019-03-20T18:53:05.290Z,40.81
2019-03-20T18:55:34.664Z,40.81
2019-03-20T18:58:04.374Z,40.63
2019-03-20T19:00:33.796Z,40.76
2019-03-20T19:03:03.609Z,40.60
2019-03-20T19:05:39.396Z,41.21
2019-03-20T19:08:08.860Z,40.99
2019-03-20T19:10:38.356Z,40.78
2019-03-20T19:13:07.824Z,41.11
2019-03-20T19:15:37.389Z,40.80
2019-03-20T19:18:06.815Z,41.30
2019-03-20T19:20:36.194Z,41.21
2019-03-20T19:23:05.911Z,41.52
2019-03-20T19:25:35.334Z,43.39
2019-03-20T19:28:04.837Z,43.73
2019-03-20T19:30:34.239Z,43.97
2019-03-20T19:33:03.702Z,47.00
2019-03-20T19:35:33.078Z,47.56
2019-03-20T19:38:02.474Z,47.56
2019-03-20T19:40:31.854Z,49.07
2019-03-20T19:43:01.262Z,49.07
2019-03-20T19:45:30.642Z,50.81
2019-03-20T19:48:00.062Z,52.71
2019-03-20T19:50:29.439Z,52.71
2019-03-20T19:52:58.806Z,52.17
2019-03-20T19:55:28.255Z,52.17
2019-03-20T19:57:57.635Z,52.72
2019-03-20T20:00:27.113Z,50.94
2019-03-20T20:02:56.656Z,50.94
2019-03-20T20:05:26.235Z,50.63
2019-03-20T20:07:55.599Z,53.39
2019-03-20T20:10:25.020Z,53.39
2019-03-20T20:12:54.393Z,51.77
2019-03-20T20:15:24.240Z,52.28
2019-03-20T20:17:53.689Z,52.18
2019-03-20T20:20:23.119Z,51.99
2019-03-20T20:22:52.542Z,52.51
2019-03-20T20:25:22.030Z,53.63
2019-03-20T20:27:51.517Z,53.47
2019-03-20T20:30:20.906Z,54.17
2019-03-20T20:32:50.300Z,54.79
2019-03-20T20:35:19.719Z,54.93
2019-03-20T20:37:49.156Z,54.82
2019-03-20T20:40:18.749Z,55.23
2019-03-20T20:42:48.158Z,55.69
2019-03-20T20:45:20.822Z,55.66
2019-03-20T20:47:50.541Z,54.77
2019-03-20T20:50:20.253Z,54.52
2019-03-20T20:52:49.635Z,54.67
2019-03-20T20:55:19.131Z,55.53
2019-03-20T20:57:48.542Z,55.29
2019-03-20T21:00:19.426Z,55.26
2019-03-20T21:02:48.924Z,56.37
2019-03-20T21:05:18.301Z,56.37
2019-03-20T21:07:48.036Z,56.93
2019-03-20T21:10:17.562Z,57.22
2019-03-20T21:12:56.381Z,57.30
2019-03-20T21:15:40.753Z,57.49
2019-03-20T21:19:06.507Z,58.03
2019-03-20T21:21:47.420Z,59.42
2019-03-20T21:24:33.124Z,59.00
2019-03-20T21:27:46.572Z,59.59
2019-03-20T21:30:46.796Z,59.66
2019-03-20T21:34:09.259Z,60.25
2019-03-20T21:37:04.056Z,60.21
2019-03-20T21:39:34.028Z,60.83
2019-03-20T21:42:41.488Z,60.75
2019-03-20T21:45:49.077Z,60.82
2019-03-20T21:48:19.209Z,61.14
2019-03-20T21:51:23.441Z,61.36
2019-03-20T21:54:41.247Z,61.54
2019-03-20T21:57:38.551Z,61.11
2019-03-20T22:01:01.395Z,61.91
2019-03-20T22:03:31.530Z,61.92
2019-03-20T22:06:37.714Z,62.55
2019-03-20T22:09:13.536Z,63.99
2019-03-20T22:12:21.743Z,62.03
2019-03-20T22:14:56.445Z,61.67
2019-03-20T22:18:19.370Z,61.63
2019-03-20T22:21:22.906Z,61.22
2019-03-20T22:24:49.730Z,61.40
2019-03-20T22:28:07.410Z,61.75
2019-03-20T22:30:37.351Z,61.90
2019-03-20T22:33:41.602Z,62.02
2019-03-20T22:36:18.188Z,62.85
2019-03-20T22:39:42.635Z,63.74
2019-03-20T22:42:35.377Z,63.00
2019-03-20T22:45:27.471Z,62.91
2019-03-20T22:48:36.437Z,63.29
2019-03-20T22:51:29.652Z,64.10
2019-03-20T22:54:40.179Z,64.00
2019-03-20T22:57:21.265Z,64.46
2019-03-20T22:59:51.299Z,64.95
2019-03-20T23:03:01.233Z,64.41
2019-03-20T23:05:31.272Z,64.17
2019-03-20T23:08:01.181Z,64.46
2019-03-20T23:10:31.585Z,64.11
2019-03-20T23:13:01.587Z,64.35
2019-03-20T23:15:31.533Z,64.98
2019-03-20T23:18:01.540Z,65.05
2019-03-20T23:20:31.868Z,64.75
2019-03-20T23:23:01.776Z,64.71
2019-03-20T23:25:31.688Z,64.76
2019-03-20T23:28:01.629Z,64.82
2019-03-20T23:30:31.702Z,65.39
2019-03-20T23:33:01.673Z,65.55
2019-03-20T23:35:31.667Z,65.68
2019-03-20T23:38:01.807Z,65.60
2019-03-20T23:40:31.798Z,65.40
2019-03-20T23:43:02.180Z,65.37
2019-03-20T23:45:32.074Z,65.66
2019-03-20T23:48:37.417Z,65.39
2019-03-20T23:51:10.826Z,66.01
2019-03-20T23:53:44.773Z,66.21
2019-03-20T23:56:14.924Z,65.82
2019-03-20T23:58:44.852Z,66.04
